Time;durP1;ratioP1;P1;durP2;ratioP2;P2;SDS_P1;SDS_P2;PMS_P1;PMS_P2;Temp;Humidity;BMP_temperature;BMP_pressure;BME280_temperature;BME280_humidity;BME280_pressure;Samples;Min_cycle;Max_cycle;Signal;HPM_P1;HPM_P2
2022/08/15 00:01:00;;;;;;;;;11.00;9.00;;;;;20.49;69.03;99872.13;4979969;28;45236;-72
2022/08/15 00:03:29;;;;;;;;;9.67;8.67;;;;;19.91;68.79;99794.66;4979492;28;46838;-71
2022/08/15 00:06:02;;;;;;;;;9.00;8.00;;;;;20.34;68.47;99876.00;4979836;28;45298;-72
2022/08/15 00:08:30;;;;;;;;;10.00;9.00;;;;;20.26;69.28;99865.53;4979829;28;46063;-72
2022/08/15 00:10:59;;;;;;;;;8.33;8.33;;;;;20.09;69.37;99845.56;4979662;28;45205;-72
2022/08/15 00:13:28;;;;;;;;;9.00;8.33;;;;;19.95;69.81;99844.06;4979564;28;45512;-72
2022/08/15 00:15:55;;;;;;;;;8.33;8.33;;;;;19.84;70.11;99840.75;4979353;28;45529;-72
2022/08/15 00:18:24;;;;;;;;;8.33;8.33;;;;;19.99;69.50;99863.44;4979605;28;45404;-72
2022/08/15 00:20:50;;;;;;;;;11.00;10.33;;;;;19.90;70.21;99855.69;4979955;28;45547;-72
2022/08/15 00:23:22;;;;;;;;;11.33;10.33;;;;;19.92;69.70;99862.69;4979463;28;45448;-73
2022/08/15 00:25:50;;;;;;;;;9.33;7.67;;;;;19.84;69.89;99840.75;4979237;28;45235;-72
2022/08/15 00:28:16;;;;;;;;;11.67;10.00;;;;;19.89;69.70;99860.09;4979518;28;45254;-73
2022/08/15 00:30:45;;;;;;;;;9.00;9.00;;;;;19.84;70.12;99856.66;4979974;28;45314;-72
2022/08/15 00:33:11;;;;;;;;;12.67;11.67;;;;;19.74;69.57;99847.16;4978882;28;46566;-72
2022/08/15 00:35:40;;;;;;;;;8.33;8.00;;;;;19.64;70.52;99834.03;4979100;28;45404;-72
2022/08/15 00:38:16;;;;;;;;;13.00;12.67;;;;;19.66;71.11;99847.25;4979656;28;45429;-72
2022/08/15 00:43:58;;;;;;;;;11.00;9.33;;;;;19.55;71.40;99820.94;4970392;28;45415;-72
2022/08/15 00:46:27;;;;;;;;;12.00;11.33;;;;;19.58;71.28;99825.31;4979059;28;45451;-72
2022/08/15 00:48:53;;;;;;;;;11.33;10.33;;;;;19.61;70.67;99831.41;4978835;28;45503;-71
2022/08/15 00:51:24;;;;;;;;;9.33;9.00;;;;;19.62;70.45;99825.22;4979128;28;45333;-72
2022/08/15 00:53:55;;;;;;;;;10.67;10.67;;;;;19.61;70.45;99836.72;4978725;28;46584;-71
2022/08/15 00:56:26;;;;;;;;;13.00;11.00;;;;;19.35;70.73;99791.31;4978941;28;45435;-72
2022/08/15 00:58:52;;;;;;;;;14.67;14.00;;;;;19.36;71.20;99807.16;4979176;28;45325;-71
2022/08/15 01:01:18;;;;;;;;;11.00;11.00;;;;;19.30;71.69;99814.31;4979242;28;45479;-72
2022/08/15 01:03:47;;;;;;;;;11.67;10.33;;;;;19.37;71.33;99832.75;4979120;28;45590;-72
2022/08/15 01:06:14;;;;;;;;;11.33;9.33;;;;;19.38;71.23;99828.34;4979334;28;45290;-72
2022/08/15 01:08:44;;;;;;;;;11.67;11.67;;;;;19.39;70.86;99824.78;4978765;28;45412;-71
2022/08/15 01:11:17;;;;;;;;;12.00;10.33;;;;;19.32;70.93;99807.22;4978928;28;45431;-72
2022/08/15 01:13:45;;;;;;;;;12.00;11.00;;;;;19.38;71.08;99820.41;4978639;28;48170;-71
2022/08/15 01:16:11;;;;;;;;;13.00;13.00;;;;;19.36;70.36;99812.47;4977899;28;45510;-72
2022/08/15 01:18:37;;;;;;;;;12.00;11.00;;;;;19.28;70.74;99802.00;4978798;28;45423;-71
2022/08/15 01:21:32;;;;;;;;;10.33;10.33;;;;;19.31;70.82;99814.31;4978917;28;45350;-71
2022/08/15 01:24:13;;;;;;;;;12.33;11.00;;;;;19.18;71.06;99797.78;4978511;28;45594;-71
2022/08/15 01:26:40;;;;;;;;;10.33;10.33;;;;;19.17;71.08;99797.78;4978770;28;45789;-71
2022/08/15 01:29:06;;;;;;;;;12.00;12.00;;;;;19.18;70.66;99803.06;4978669;28;45379;-71
2022/08/15 01:31:32;;;;;;;;;11.33;9.67;;;;;19.31;70.75;99822.25;4978400;28;45215;-71
2022/08/15 01:34:00;;;;;;;;;11.00;10.33;;;;;19.31;70.04;99816.09;4978228;28;45455;-72
2022/08/15 01:36:31;;;;;;;;;11.00;11.00;;;;;19.10;70.87;99799.69;4978322;28;45363;-71
2022/08/15 01:39:13;;;;;;;;;13.33;11.33;;;;;19.09;71.19;99816.44;4960966;28;45364;-71
2022/08/15 01:41:45;;;;;;;;;10.00;9.67;;;;;18.96;71.33;99807.84;4978777;28;45428;-71
2022/08/15 01:44:23;;;;;;;;;14.33;12.33;;;;;18.88;71.93;99805.31;4978108;28;45513;-72
2022/08/15 01:47:23;;;;;;;;;12.00;11.00;;;;;18.88;71.89;99810.63;4978392;28;45320;-71
2022/08/15 01:50:16;;;;;;;;;10.67;9.33;;;;;18.92;71.75;99802.59;4978523;28;45291;-72
2022/08/15 01:52:50;;;;;;;;;11.67;11.00;;;;;18.93;71.69;99807.88;4978332;28;45527;-71
2022/08/15 01:55:17;;;;;;;;;10.33;10.00;;;;;18.98;71.47;99802.50;4978295;28;45394;-72
2022/08/15 01:57:42;;;;;;;;;14.00;12.00;;;;;18.95;71.10;99797.28;4977978;28;45382;-71
2022/08/15 02:00:11;;;;;;;;;8.33;7.67;;;;;18.72;71.19;99769.41;4978030;28;45499;-71
2022/08/15 02:02:37;;;;;;;;;13.33;12.00;;;;;19.02;71.15;99806.84;4976899;28;45626;-71
2022/08/15 02:05:05;;;;;;;;;13.67;11.00;;;;;18.98;70.58;99795.47;4977663;28;45333;-72
2022/08/15 02:07:31;;;;;;;;;14.00;12.00;;;;;19.04;70.79;99799.78;4977833;28;45594;-72
2022/08/15 02:09:57;;;;;;;;;11.33;9.67;;;;;19.06;71.40;99808.59;4977881;28;45528;-72
2022/08/15 02:12:30;;;;;;;;;12.33;12.00;;;;;19.16;71.11;99804.88;4978145;28;45536;-72
2022/08/15 02:14:58;;;;;;;;;11.33;11.00;;;;;19.21;70.25;99805.66;4977503;28;45230;-71
2022/08/15 02:17:23;;;;;;;;;13.00;12.00;;;;;19.18;70.22;99784.53;4977432;28;45432;-72
2022/08/15 02:19:50;;;;;;;;;13.00;11.67;;;;;19.33;70.16;99793.09;4978152;28;45451;-71
2022/08/15 02:22:20;;;;;;;;;12.00;12.00;;;;;19.30;70.34;99791.41;4978151;28;45404;-71
2022/08/15 02:24:45;;;;;;;;;13.67;12.67;;;;;19.39;70.25;99795.63;4977480;28;45459;-71
2022/08/15 02:27:11;;;;;;;;;12.00;12.00;;;;;19.44;69.75;99791.16;4976512;28;45506;-71
2022/08/15 02:29:38;;;;;;;;;12.00;10.00;;;;;19.55;69.46;99799.75;4977900;28;45218;-71
2022/08/15 02:32:16;;;;;;;;;13.33;12.33;;;;;19.48;69.60;99784.88;4977530;28;45514;-72
2022/08/15 02:34:44;;;;;;;;;9.33;9.33;;;;;19.53;69.81;99804.19;4977350;28;46118;-71
2022/08/15 02:37:11;;;;;;;;;11.67;11.67;;;;;19.51;69.60;99807.78;4977640;28;45505;-71
2022/08/15 02:39:39;;;;;;;;;13.33;12.33;;;;;19.33;69.50;99778.06;4977467;28;45218;-72
2022/08/15 02:42:04;;;;;;;;;12.00;12.00;;;;;19.56;69.17;99809.44;4977707;28;45357;-72
2022/08/15 02:44:30;;;;;;;;;14.67;13.67;;;;;19.58;69.50;99810.28;4977214;28;45490;-71
2022/08/15 02:46:56;;;;;;;;;12.00;12.00;;;;;19.59;69.38;99801.44;4977321;28;45253;-71
2022/08/15 02:49:24;;;;;;;;;16.67;14.67;;;;;19.53;69.36;99787.44;4977759;28;45428;-71
2022/08/15 02:51:51;;;;;;;;;12.00;12.00;;;;;19.61;69.22;99790.81;4977805;28;45332;-71
2022/08/15 02:54:19;;;;;;;;;16.00;14.00;;;;;19.65;69.21;99797.78;4977114;28;45323;-71
2022/08/15 02:56:44;;;;;;;;;16.00;14.00;;;;;19.55;68.92;99773.25;4977299;28;45330;-71
2022/08/15 02:59:10;;;;;;;;;14.00;11.00;;;;;19.67;68.46;99785.38;4977249;28;45326;-71
2022/08/15 03:01:40;;;;;;;;;11.00;10.67;;;;;19.70;68.48;99782.69;4977549;28;45522;-72
2022/08/15 03:04:09;;;;;;;;;13.00;12.67;;;;;19.59;68.16;99748.44;4977224;28;45515;-71
2022/08/15 03:06:35;;;;;;;;;11.33;11.00;;;;;19.88;67.95;99800.03;4977332;28;45520;-71
2022/08/15 03:09:06;;;;;;;;;14.33;11.67;;;;;19.93;67.52;99787.53;4977255;28;45257;-72
2022/08/15 03:11:38;;;;;;;;;17.00;14.00;;;;;19.96;67.36;99778.69;4977221;28;45199;-71
2022/08/15 03:14:07;;;;;;;;;11.33;10.67;;;;;19.92;67.43;99769.06;4976854;28;46398;-71
2022/08/15 03:16:42;;;;;;;;;11.33;11.00;;;;;19.93;67.87;99766.34;4977143;28;45297;-72
2022/08/15 03:19:08;;;;;;;;;12.33;11.67;;;;;19.98;67.62;99769.78;4977151;28;45163;-71
2022/08/15 03:21:36;;;;;;;;;12.67;11.67;;;;;19.95;68.42;99768.97;4977379;28;45440;-71
2022/08/15 03:24:03;;;;;;;;;15.33;14.00;;;;;19.92;68.28;99771.69;4976854;28;46204;-72
2022/08/15 03:26:28;;;;;;;;;11.00;11.00;;;;;19.97;68.62;99781.28;4977004;28;45332;-72
2022/08/15 03:28:55;;;;;;;;;11.67;10.33;;;;;19.96;68.52;99787.50;4977228;28;45436;-71
2022/08/15 03:31:21;;;;;;;;;12.67;11.67;;;;;19.93;67.91;99771.66;4977155;28;45459;-71
2022/08/15 03:33:46;;;;;;;;;14.00;13.00;;;;;19.71;67.98;99742.06;4976697;28;46114;-71
2022/08/15 03:36:15;;;;;;;;;11.00;11.00;;;;;19.82;68.05;99777.19;4976495;28;45497;-72
2022/08/15 03:38:41;;;;;;;;;11.00;11.00;;;;;19.76;68.89;99782.59;4978050;28;45497;-72
2022/08/15 03:41:09;;;;;;;;;14.00;11.33;;;;;19.53;69.21;99767.09;4980261;28;45325;-71
2022/08/15 03:43:36;;;;;;;;;11.67;11.00;;;;;19.51;69.32;99776.00;4979917;28;46077;-71
2022/08/15 03:46:05;;;;;;;;;12.33;12.00;;;;;19.41;70.78;99776.16;4979914;28;45456;-72
2022/08/15 03:48:34;;;;;;;;;14.00;13.00;;;;;19.24;71.61;99781.78;4980072;28;45239;-72
2022/08/15 03:51:02;;;;;;;;;11.00;11.00;;;;;19.11;71.20;99759.06;4980171;28;45312;-72
2022/08/15 03:53:32;;;;;;;;;15.00;13.00;;;;;19.14;71.31;99771.34;4979910;28;46309;-72
2022/08/15 03:56:02;;;;;;;;;15.00;13.67;;;;;18.97;71.65;99756.66;4980219;28;45908;-72
2022/08/15 03:58:29;;;;;;;;;14.00;13.00;;;;;19.01;71.62;99771.56;4979978;28;45580;-72
2022/08/15 04:00:55;;;;;;;;;11.67;11.00;;;;;18.95;71.89;99765.53;4980390;28;45202;-71
2022/08/15 04:03:24;;;;;;;;;11.67;11.67;;;;;18.94;71.66;99777.00;4979745;28;45409;-71
2022/08/15 04:05:53;;;;;;;;;12.33;12.33;;;;;18.72;72.18;99756.16;4994972;28;45469;-72
2022/08/15 04:08:22;;;;;;;;;13.00;12.00;;;;;18.69;72.70;99757.06;4979946;28;45464;-72
2022/08/15 04:10:50;;;;;;;;;13.00;13.00;;;;;18.77;72.55;99769.31;4995097;28;45428;-72
2022/08/15 04:13:20;;;;;;;;;12.67;12.00;;;;;18.64;72.55;99751.00;4979595;28;45390;-71
2022/08/15 04:15:47;;;;;;;;;13.00;12.00;;;;;18.68;72.43;99757.97;4979719;28;45502;-71
2022/08/15 04:18:12;;;;;;;;;17.00;15.67;;;;;18.75;72.18;99766.69;4979578;28;45372;-71
2022/08/15 04:20:38;;;;;;;;;12.67;11.67;;;;;18.71;72.03;99764.13;4979829;28;45428;-71
2022/08/15 04:23:05;;;;;;;;;15.33;14.00;;;;;18.63;72.52;99753.66;4979569;28;45388;-72
2022/08/15 04:25:37;;;;;;;;;18.00;14.67;;;;;18.67;72.92;99768.59;4979471;28;45441;-71
2022/08/15 04:28:04;;;;;;;;;14.67;13.67;;;;;18.65;73.04;99773.03;4979658;28;45571;-71
2022/08/15 04:30:35;;;;;;;;;12.33;12.33;;;;;18.43;72.79;99735.44;4979900;28;45424;-72
2022/08/15 04:33:18;;;;;;;;;15.00;13.33;;;;;18.62;72.71;99763.38;4979158;28;46491;-72
2022/08/15 04:35:47;;;;;;;;;15.67;12.67;;;;;18.61;72.42;99758.09;4979212;28;45459;-71
2022/08/15 04:38:13;;;;;;;;;14.33;13.00;;;;;18.40;72.52;99728.44;4961739;28;45419;-71
2022/08/15 04:40:40;;;;;;;;;14.67;14.67;;;;;18.59;72.41;99765.19;4979521;28;45495;-71
2022/08/15 04:43:06;;;;;;;;;14.33;12.67;;;;;18.57;72.67;99766.97;4979007;28;46137;-71
2022/08/15 04:45:34;;;;;;;;;15.00;13.67;;;;;18.48;73.22;99755.66;4979159;28;45347;-71
2022/08/15 04:48:04;;;;;;;;;14.25;14.00;;;;;18.38;72.79;99748.75;4979541;28;45219;-71
2022/08/15 04:50:32;;;;;;;;;17.67;15.33;;;;;18.49;72.88;99757.38;4978728;28;45401;-71
2022/08/15 04:52:58;;;;;;;;;14.67;13.67;;;;;18.32;72.57;99726.78;4979230;28;45597;-71
2022/08/15 04:55:26;;;;;;;;;19.67;17.00;;;;;18.47;73.19;99761.81;4978938;28;45464;-72
2022/08/15 04:57:53;;;;;;;;;15.33;14.33;;;;;18.45;72.80;99768.91;4979000;28;45468;-71
2022/08/15 05:00:22;;;;;;;;;13.25;13.25;;;;;18.48;72.70;99768.88;4979281;28;45345;-71
2022/08/15 05:03:00;;;;;;;;;14.75;14.00;;;;;18.49;72.33;99767.97;4993808;28;45655;-71
2022/08/15 05:05:27;;;;;;;;;14.67;13.67;;;;;18.36;72.46;99747.00;4978950;28;45559;-71
2022/08/15 05:07:52;;;;;;;;;15.00;14.33;;;;;18.39;72.66;99753.13;4978870;28;45362;-71
2022/08/15 05:10:18;;;;;;;;;16.33;16.00;;;;;18.51;72.47;99767.06;4978921;28;45506;-72
2022/08/15 05:12:44;;;;;;;;;14.33;14.33;;;;;18.40;72.39;99754.00;4978691;28;45448;-71
2022/08/15 05:15:12;;;;;;;;;15.00;13.33;;;;;18.51;72.51;99767.94;4978475;28;45333;-71
2022/08/15 05:17:39;;;;;;;;;17.33;15.33;;;;;18.51;72.34;99772.38;4978735;28;45485;-72
2022/08/15 05:20:06;;;;;;;;;16.00;15.00;;;;;18.40;72.56;99754.88;4979004;28;45306;-72
2022/08/15 05:22:32;;;;;;;;;15.00;14.33;;;;;18.51;72.37;99769.72;4978949;28;45387;-71
2022/08/15 05:24:58;;;;;;;;;18.00;15.67;;;;;18.43;72.40;99759.25;4978838;28;45512;-71
2022/08/15 05:27:24;;;;;;;;;17.00;14.67;;;;;18.46;72.01;99769.75;4978576;28;45430;-71
2022/08/15 05:29:51;;;;;;;;;10.00;10.00;;;;;18.39;72.21;99763.69;4978907;28;45245;-71
2022/08/15 05:32:20;;;;;;;;;12.00;11.67;;;;;18.40;72.11;99765.47;4978293;28;45656;-71
2022/08/15 05:34:47;;;;;;;;;16.33;13.67;;;;;18.49;72.19;99773.25;4978164;28;45512;-71
2022/08/15 05:37:14;;;;;;;;;14.33;13.00;;;;;18.51;71.97;99767.94;4978467;28;45458;-72
2022/08/15 05:39:43;;;;;;;;;16.67;13.67;;;;;18.59;71.58;99770.47;4978453;28;45332;-71
2022/08/15 05:42:36;;;;;;;;;15.00;14.33;;;;;18.64;71.58;99776.56;4978242;28;45537;-71
2022/08/15 05:45:19;;;;;;;;;18.33;13.33;;;;;18.68;71.08;99771.22;4978518;28;45472;-71
2022/08/15 05:48:14;;;;;;;;;14.00;12.33;;;;;18.72;70.70;99760.56;4978211;28;45343;-72
2022/08/15 05:50:52;;;;;;;;;17.33;14.00;;;;;18.89;70.37;99774.44;4970259;28;45298;-71
2022/08/15 05:53:27;;;;;;;;;13.33;13.33;;;;;18.97;70.33;99788.41;4977752;28;46549;-71
2022/08/15 05:56:11;;;;;;;;;13.67;13.67;;;;;19.00;70.33;99788.38;4977506;28;45478;-71
2022/08/15 05:58:45;;;;;;;;;13.50;13.00;;;;;19.05;69.92;99775.06;4977933;28;45301;-72
2022/08/15 06:01:32;;;;;;;;;16.00;14.00;;;;;19.23;70.04;99781.81;4977830;28;45439;-72
2022/08/15 06:04:32;;;;;;;;;14.33;13.33;;;;;19.41;69.20;99780.59;4977896;28;45251;-71
2022/08/15 06:07:05;;;;;;;;;13.00;12.00;;;;;19.52;68.64;99775.97;4977168;28;45412;-72
2022/08/15 06:10:04;;;;;;;;;15.00;14.33;;;;;19.52;68.56;99777.72;4978233;28;45305;-71
2022/08/15 06:12:43;;;;;;;;;15.33;15.33;;;;;19.57;68.19;99782.03;4977955;28;45507;-71
2022/08/15 06:15:37;;;;;;;;;12.00;12.00;;;;;19.76;68.04;99784.38;4977650;28;46299;-72
2022/08/15 06:18:09;;;;;;;;;16.00;13.67;;;;;19.94;67.25;99780.50;4978170;28;45413;-71
2022/08/15 06:20:51;;;;;;;;;13.33;13.00;;;;;20.13;67.13;99778.31;4977907;28;45580;-71
2022/08/15 06:23:35;;;;;;;;;15.67;14.00;;;;;20.43;66.14;99782.06;4960277;28;45623;-71
2022/08/15 06:26:17;;;;;;;;;14.00;14.00;;;;;22.37;62.52;99785.84;4977815;28;45371;-72
2022/08/15 06:29:08;;;;;;;;;14.33;13.67;;;;;24.38;56.32;99782.50;4977678;28;45260;-72
2022/08/15 06:32:02;;;;;;;;;12.67;11.67;;;;;26.13;52.47;99779.59;4960245;28;45497;-71
2022/08/15 06:34:56;;;;;;;;;14.67;12.33;;;;;27.45;49.15;99782.97;4955694;28;45457;-72
2022/08/15 06:37:42;;;;;;;;;13.00;12.33;;;;;28.49;44.39;99761.25;4977522;28;45948;-72
2022/08/15 06:40:21;;;;;;;;;13.00;13.00;;;;;29.42;42.08;99767.50;4977502;28;45349;-73
2022/08/15 06:42:47;;;;;;;;;12.00;12.00;;;;;28.47;45.73;99755.09;4959900;28;45562;-71
2022/08/15 06:45:21;;;;;;;;;13.00;12.00;;;;;27.61;45.26;99770.50;4977710;28;45305;-72
2022/08/15 06:47:50;;;;;;;;;11.67;11.00;;;;;28.21;45.63;99772.66;4977185;28;45467;-72
2022/08/15 06:50:20;;;;;;;;;12.67;10.67;;;;;28.88;42.69;99729.47;4977354;28;45357;-72
2022/08/15 06:52:58;;;;;;;;;11.33;10.00;;;;;30.43;40.22;99757.63;4977204;28;45523;-72
2022/08/15 06:55:29;;;;;;;;;10.33;10.33;;;;;31.57;38.08;99736.50;4977519;28;45499;-72
2022/08/15 06:58:05;;;;;;;;;15.00;12.00;;;;;32.32;35.44;99749.19;4977126;28;46099;-72
2022/08/15 07:00:41;;;;;;;;;11.67;10.67;;;;;33.17;34.71;99751.88;4959665;28;45430;-73
2022/08/15 07:03:20;;;;;;;;;12.00;11.00;;;;;34.24;33.40;99761.53;4977710;28;45247;-72
2022/08/15 07:05:54;;;;;;;;;14.67;13.00;;;;;35.18;33.21;99774.63;4977205;28;45543;-72
2022/08/15 07:08:39;;;;;;;;;11.00;11.00;;;;;35.84;30.75;99764.34;4976673;28;46519;-72
2022/08/15 07:11:16;;;;;;;;;12.00;11.00;;;;;36.30;29.54;99772.13;4977305;28;45260;-72
2022/08/15 07:14:06;;;;;;;;;11.00;11.00;;;;;36.78;28.76;99765.97;4978362;28;45305;-72
2022/08/15 07:16:48;;;;;;;;;8.33;8.33;;;;;37.38;28.73;99763.94;4980777;28;45495;-72
2022/08/15 07:19:15;;;;;;;;;13.33;12.33;;;;;37.69;28.38;99771.09;4980250;28;46359;-72
2022/08/15 07:21:40;;;;;;;;;12.00;11.00;;;;;37.77;28.18;99753.00;4980828;28;45399;-72
2022/08/15 07:24:15;;;;;;;;;11.67;10.67;;;;;37.52;28.56;99769.94;4981941;28;45415;-73
2022/08/15 07:27:07;;;;;;;;;9.67;8.67;;;;;36.87;29.39;99765.13;4982045;28;45583;-73
2022/08/15 07:29:47;;;;;;;;;9.67;9.67;;;;;34.91;30.90;99743.38;4980058;28;45620;-72
2022/08/15 07:32:20;;;;;;;;;17.00;17.00;;;;;33.64;32.08;99757.28;4997604;28;45392;-71
2022/08/15 07:35:14;;;;;;;;;12.67;12.00;;;;;32.76;34.91;99768.53;4980737;28;45363;-74
2022/08/15 07:37:55;;;;;;;;;11.00;10.67;;;;;32.23;34.92;99766.94;4980424;28;45495;-73
2022/08/15 07:40:23;;;;;;;;;12.67;11.67;;;;;31.70;37.28;99771.63;4994407;28;45725;-72
2022/08/15 07:42:49;;;;;;;;;12.67;12.67;;;;;31.74;37.58;99756.94;4979608;28;45328;-72
2022/08/15 07:45:17;;;;;;;;;12.00;11.67;;;;;31.99;37.65;99757.88;4980044;28;45380;-72
2022/08/15 07:47:56;;;;;;;;;9.33;9.33;;;;;31.60;38.34;99759.75;4980095;28;45306;-73
2022/08/15 07:50:39;;;;;;;;;12.00;12.00;;;;;31.00;38.96;99769.19;4979607;28;46156;-72
2022/08/15 07:53:24;;;;;;;;;11.67;11.67;;;;;30.26;39.75;99760.50;4979355;28;45483;-73
2022/08/15 07:56:13;;;;;;;;;10.00;10.00;;;;;29.95;41.36;99775.94;4978924;28;45425;-73
2022/08/15 07:58:42;;;;;;;;;12.00;11.67;;;;;29.40;41.15;99706.69;4979765;28;45397;-73
2022/08/15 08:01:13;;;;;;;;;16.67;15.67;;;;;29.76;41.33;99745.75;4979597;28;46657;-73
2022/08/15 08:03:50;;;;;;;;;12.00;10.33;;;;;29.47;40.71;99676.59;4979914;28;45514;-73
2022/08/15 08:06:49;;;;;;;;;12.67;12.00;;;;;30.17;40.20;99770.06;4979329;28;45412;-73
2022/08/15 08:09:42;;;;;;;;;11.67;11.33;;;;;30.25;39.89;99764.19;4979082;28;45706;-73
2022/08/15 08:12:28;;;;;;;;;17.33;14.33;;;;;30.24;40.33;99763.34;4979344;28;45433;-72
2022/08/15 08:15:03;;;;;;;;;13.00;13.00;;;;;29.97;39.42;99736.31;4978425;28;45434;-74
2022/08/15 08:17:51;;;;;;;;;11.33;11.00;;;;;30.26;38.56;99779.38;4978913;28;45344;-73
2022/08/15 08:20:32;;;;;;;;;14.00;13.33;;;;;30.03;38.92;99772.78;4978798;28;45366;-73
2022/08/15 08:23:04;;;;;;;;;12.33;12.33;;;;;29.81;39.88;99731.03;4978218;28;45645;-72
2022/08/15 08:25:44;;;;;;;;;13.67;13.00;;;;;30.17;39.35;99704.56;4977220;28;45439;-72
2022/08/15 08:28:42;;;;;;;;;13.67;12.00;;;;;32.93;35.66;99756.41;4978825;28;45362;-73
2022/08/15 08:31:28;;;;;;;;;12.00;11.67;;;;;35.01;32.55;99757.88;4954129;28;45435;-72
2022/08/15 08:34:27;;;;;;;;;13.33;12.67;;;;;34.90;32.25;99773.34;4978432;28;45553;-73
2022/08/15 08:37:05;;;;;;;;;14.67;13.67;;;;;34.36;31.56;99762.38;4978562;28;45453;-73
2022/08/15 08:39:49;;;;;;;;;14.00;12.00;;;;;33.67;32.28;99721.84;4978552;28;45464;-72
2022/08/15 08:42:45;;;;;;;;;11.67;11.67;;;;;34.26;30.81;99750.53;4978538;28;45540;-73
2022/08/15 08:45:15;;;;;;;;;26.33;24.67;;;;;35.91;28.98;99751.06;4978606;28;46387;-72
2022/08/15 08:47:50;;;;;;;;;18.67;17.67;;;;;38.37;26.31;99773.56;4978272;28;45324;-72
2022/08/15 08:50:29;;;;;;;;;15.00;14.00;;;;;40.24;24.41;99777.22;4978387;28;45233;-72
2022/08/15 08:53:22;;;;;;;;;14.33;13.67;;;;;41.07;24.74;99774.53;4978328;28;45474;-73
2022/08/15 08:55:51;;;;;;;;;13.33;12.33;;;;;40.45;24.01;99779.53;4959684;28;47750;-73
2022/08/15 08:58:28;;;;;;;;;16.00;15.67;;;;;39.17;25.16;99766.41;4977576;28;45450;-73
2022/08/15 09:00:55;;;;;;;;;14.00;14.00;;;;;38.25;25.93;99731.13;4976584;28;45524;-72
2022/08/15 09:03:29;;;;;;;;;15.00;15.00;;;;;37.56;27.21;99755.03;4977993;28;45498;-74
2022/08/15 09:05:58;;;;;;;;;16.33;15.67;;;;;36.46;28.34;99723.50;4992370;28;47041;-72
2022/08/15 09:08:24;;;;;;;;;15.00;13.00;;;;;36.32;28.66;99781.88;4977473;28;45400;-73
2022/08/15 09:10:55;;;;;;;;;18.33;17.00;;;;;35.97;28.93;99777.72;4977439;28;45346;-73
2022/08/15 09:13:36;;;;;;;;;21.33;19.67;;;;;35.22;30.14;99785.09;4976065;28;45519;-72
2022/08/15 09:16:15;;;;;;;;;13.33;13.33;;;;;34.50;31.69;99772.09;4976925;28;46106;-73
2022/08/15 09:19:06;;;;;;;;;14.00;12.67;;;;;33.87;32.66;99782.56;4977777;28;45298;-73
2022/08/15 09:21:33;;;;;;;;;17.00;16.00;;;;;33.35;33.30;99771.25;4970356;28;45554;-72
2022/08/15 09:24:00;;;;;;;;;14.00;13.67;;;;;32.88;33.28;99779.28;4977128;28;45334;-73
2022/08/15 09:26:40;;;;;;;;;16.33;16.33;;;;;32.10;34.20;99785.00;4976993;28;45526;-73
2022/08/15 09:29:18;;;;;;;;;20.67;19.67;;;;;31.60;35.77;99789.44;4977510;28;45524;-73
2022/08/15 09:32:10;;;;;;;;;16.00;15.33;;;;;31.25;35.80;99779.19;4977150;28;45474;-72
2022/08/15 09:35:19;;;;;;;;;16.00;15.00;;;;;31.01;36.53;99787.13;4946799;28;45234;-73
2022/08/15 09:38:05;;;;;;;;;21.00;18.00;;;;;31.16;36.48;99787.91;4929752;28;45420;-73
2022/08/15 09:40:42;;;;;;;;;20.67;19.67;;;;;31.45;35.47;99791.34;4976974;28;45507;-73
2022/08/15 09:43:39;;;;;;;;;20.67;18.33;;;;;31.46;36.30;99788.56;4976956;28;45309;-73
2022/08/15 09:46:25;;;;;;;;;23.00;21.00;;;;;31.69;35.70;99794.19;4976977;28;45290;-72
2022/08/15 09:49:02;;;;;;;;;30.00;29.00;;;;;31.85;35.13;99788.56;4976314;28;45581;-73
2022/08/15 09:52:01;;;;;;;;;54.50;45.25;;;;;31.66;35.68;99764.72;4958851;28;45725;-73
2022/08/15 09:54:30;;;;;;;;;31.00;29.00;;;;;31.67;35.88;99790.72;4976884;28;45300;-73
2022/08/15 09:57:30;;;;;;;;;22.67;21.00;;;;;31.48;36.22;99788.47;4976636;28;45429;-73
2022/08/15 10:00:00;;;;;;;;;14.00;13.67;;;;;32.28;35.51;99782.81;4976540;28;45611;-73
2022/08/15 10:02:31;;;;;;;;;22.00;20.67;;;;;32.94;33.58;99785.22;4975963;28;45274;-73
2022/08/15 10:04:57;;;;;;;;;17.67;17.33;;;;;32.57;33.50;99713.13;4975168;28;45303;-72
2022/08/15 10:07:32;;;;;;;;;17.33;17.33;;;;;32.82;33.70;99725.63;4975081;28;45440;-73
2022/08/15 10:10:00;;;;;;;;;29.75;28.00;;;;;33.31;32.60;99777.00;4975026;28;46684;-72
2022/08/15 10:12:27;;;;;;;;;22.00;20.00;;;;;32.93;33.55;99722.13;4974906;28;45377;-73
2022/08/15 10:14:53;;;;;;;;;24.00;21.00;;;;;32.81;33.19;99731.16;4991069;28;45408;-73
2022/08/15 10:17:37;;;;;;;;;29.67;28.33;;;;;32.57;34.18;99790.66;4976144;28;45514;-72
2022/08/15 10:20:14;;;;;;;;;25.00;22.00;;;;;31.99;34.76;99799.25;4975410;28;45590;-73
2022/08/15 10:22:57;;;;;;;;;25.67;23.67;;;;;31.55;35.24;99772.69;4975523;28;45466;-72
2022/08/15 10:25:29;;;;;;;;;24.33;24.00;;;;;31.67;35.22;99793.41;4976290;28;45662;-72
2022/08/15 10:28:08;;;;;;;;;21.67;20.67;;;;;31.46;35.53;99793.09;4976715;28;45933;-72
2022/08/15 10:30:40;;;;;;;;;35.50;31.25;;;;;30.46;36.33;99691.88;4975998;28;46741;-72
2022/08/15 10:33:24;;;;;;;;;29.00;28.00;;;;;30.94;37.00;99794.78;4976189;28;45412;-72
2022/08/15 10:35:51;;;;;;;;;25.00;23.00;;;;;29.76;37.29;99611.16;4976595;28;45494;-72
2022/08/15 10:38:25;;;;;;;;;31.33;28.33;;;;;29.83;37.50;99651.03;4976652;28;45516;-72
2022/08/15 10:41:03;;;;;;;;;28.33;26.67;;;;;30.60;38.10;99788.88;4975908;28;45650;-73
2022/08/15 10:43:32;;;;;;;;;26.00;23.33;;;;;30.47;37.68;99794.19;4976228;28;45524;-72
2022/08/15 10:46:19;;;;;;;;;29.33;27.00;;;;;30.44;38.28;99799.81;4976136;28;45469;-73
2022/08/15 10:48:58;;;;;;;;;41.25;35.00;;;;;30.45;38.00;99792.56;4977961;28;45445;-72
2022/08/15 10:51:53;;;;;;;;;34.00;31.25;;;;;30.15;38.53;99798.94;4978806;28;45491;-73
2022/08/15 10:55:00;;;;;;;;;51.75;42.50;;;;;30.31;38.12;99788.94;4979446;28;45423;-72
2022/08/15 10:57:48;;;;;;;;;30.33;29.33;;;;;30.49;37.62;99780.63;4994437;28;45421;-72
2022/08/15 11:00:32;;;;;;;;;28.67;27.67;;;;;30.54;37.27;99775.81;4979577;28;45504;-73
2022/08/15 11:03:02;;;;;;;;;38.25;31.50;;;;;30.23;37.22;99780.44;4961855;28;47237;-72
2022/08/15 11:05:28;;;;;;;;;30.67;28.33;;;;;30.20;37.20;99759.09;4979431;28;45514;-72
2022/08/15 11:07:55;;;;;;;;;29.00;27.67;;;;;31.50;35.57;99773.88;4979641;28;45471;-73
2022/08/15 11:10:26;;;;;;;;;19.33;18.00;;;;;31.84;34.79;99773.34;4980422;28;45301;-72
2022/08/15 11:13:01;;;;;;;;;24.00;23.33;;;;;31.51;34.86;99745.94;4979796;28;46568;-72
2022/08/15 11:15:33;;;;;;;;;34.67;30.00;;;;;31.44;34.53;99741.03;4979582;28;45570;-73
2022/08/15 11:18:05;;;;;;;;;28.33;25.00;;;;;31.43;33.72;99707.75;4979643;28;45229;-72
2022/08/15 11:20:45;;;;;;;;;31.33;30.00;;;;;32.31;33.16;99760.97;4979619;28;45324;-72
2022/08/15 11:23:11;;;;;;;;;33.00;30.00;;;;;32.34;32.23;99705.84;4979040;28;45559;-73
2022/08/15 11:25:39;;;;;;;;;27.25;26.00;;;;;33.16;31.88;99765.53;4979380;28;45323;-72
2022/08/15 11:28:10;;;;;;;;;22.00;22.00;;;;;32.92;31.83;99704.16;4979512;28;45312;-72
2022/08/15 11:30:41;;;;;;;;;30.25;27.00;;;;;32.87;32.73;99742.41;4979184;28;45583;-73
2022/08/15 11:33:26;;;;;;;;;29.33;27.67;;;;;32.33;33.50;99714.91;4978430;28;45648;-72
2022/08/15 11:36:08;;;;;;;;;18.33;18.33;;;;;32.31;33.20;99769.06;4978983;28;45519;-72
2022/08/15 11:38:36;;;;;;;;;34.00;31.67;;;;;32.06;33.73;99757.34;4978912;28;45413;-72
2022/08/15 11:41:02;;;;;;;;;23.67;23.67;;;;;31.92;33.78;99758.31;4979113;28;45464;-73
2022/08/15 11:43:29;;;;;;;;;20.33;20.00;;;;;32.06;34.10;99738.44;4993743;28;45708;-73
2022/08/15 11:45:57;;;;;;;;;31.67;29.33;;;;;32.21;33.25;99741.88;4977100;28;45815;-73
2022/08/15 11:48:39;;;;;;;;;39.25;34.25;;;;;31.94;33.71;99751.94;4978797;28;45587;-73
2022/08/15 11:51:14;;;;;;;;;40.25;35.75;;;;;31.98;34.50;99750.75;4979167;28;45279;-73
2022/08/15 11:54:03;;;;;;;;;29.67;26.33;;;;;31.77;34.94;99754.00;4978199;28;45651;-72